Time;durP1;ratioP1;P1;durP2;ratioP2;P2;SDS_P1;SDS_P2;PMS_P1;PMS_P2;Temp;Humidity;BMP_temperature;BMP_pressure;BME280_temperature;BME280_humidity;BME280_pressure;Samples;Min_cycle;Max_cycle;Signal;HPM_P1;HPM_P2
2021/07/04 00:00:51;;;;;;;5.67;5.27;;;21.70;99.50;;;;;;5072225;28;20474;-66
2021/07/04 00:03:18;;;;;;;6.37;5.87;;;21.60;99.60;;;;;;5071836;28;20960;-66
2021/07/04 00:05:46;;;;;;;6.87;6.27;;;21.60;99.80;;;;;;5072291;28;20481;-66
2021/07/04 00:08:15;;;;;;;7.20;6.50;;;21.60;99.90;;;;;;5071901;28;20812;-66
2021/07/04 00:10:45;;;;;;;7.00;6.40;;;21.60;99.90;;;;;;5072404;28;20477;-66
2021/07/04 00:13:15;;;;;;;7.30;6.50;;;21.60;99.90;;;;;;5071767;28;20481;-66
2021/07/04 00:15:43;;;;;;;7.50;6.77;;;21.60;99.90;;;;;;5072200;28;20485;-66
2021/07/04 00:18:12;;;;;;;6.67;6.17;;;21.60;99.90;;;;;;5071724;28;20527;-66
2021/07/04 00:20:40;;;;;;;7.10;6.50;;;21.60;99.90;;;;;;5073075;28;20481;-66
2021/07/04 00:23:07;;;;;;;7.10;6.47;;;21.60;99.90;;;;;;5062644;28;20463;-66
2021/07/04 00:25:35;;;;;;;8.37;7.57;;;21.60;99.90;;;;;;5075920;28;20508;-66
2021/07/04 00:28:03;;;;;;;6.80;6.30;;;21.60;99.90;;;;;;5075533;28;20487;-66
2021/07/04 00:30:31;;;;;;;9.13;6.50;;;21.60;99.90;;;;;;5075803;28;20480;-66
2021/07/04 00:32:58;;;;;;;7.40;6.03;;;21.60;99.90;;;;;;5075542;28;20466;-64
2021/07/04 00:35:28;;;;;;;7.47;6.77;;;21.60;99.90;;;;;;5075952;28;20808;-65
2021/07/04 00:37:55;;;;;;;6.90;6.30;;;21.60;99.90;;;;;;5075558;28;20805;-66
2021/07/04 00:40:24;;;;;;;8.00;7.30;;;21.60;99.90;;;;;;5075291;28;20856;-66
2021/07/04 00:42:51;;;;;;;7.40;6.80;;;21.50;99.90;;;;;;5075600;28;20804;-66
2021/07/04 00:45:21;;;;;;;7.57;6.33;;;21.50;99.90;;;;;;5075156;28;20473;-66
2021/07/04 00:47:51;;;;;;;7.10;6.40;;;21.60;99.90;;;;;;5072947;28;20482;-66
2021/07/04 00:50:19;;;;;;;6.87;6.27;;;21.60;99.90;;;;;;5064662;28;20964;-65
2021/07/04 00:52:47;;;;;;;6.93;6.33;;;21.50;99.90;;;;;;5075368;28;20477;-66
2021/07/04 00:55:16;;;;;;;7.30;6.70;;;21.50;99.90;;;;;;5070010;28;20478;-66
2021/07/04 00:57:44;;;;;;;6.77;6.17;;;21.50;99.90;;;;;;5072529;28;20477;-66
2021/07/04 01:00:14;;;;;;;6.70;6.20;;;21.50;99.90;;;;;;5075010;28;20474;-66
2021/07/04 01:02:41;;;;;;;7.33;6.73;;;21.50;99.90;;;;;;5075299;28;20785;-65
2021/07/04 01:05:12;;;;;;;7.13;6.63;;;21.50;99.90;;;;;;5074919;28;20851;-66
2021/07/04 01:07:40;;;;;;;6.80;6.30;;;21.50;99.90;;;;;;5075069;28;20470;-66
2021/07/04 01:10:09;;;;;;;7.33;6.60;;;21.50;99.90;;;;;;5074917;28;20959;-66
2021/07/04 01:12:36;;;;;;;7.13;6.63;;;21.50;99.90;;;;;;5074975;28;20466;-65
2021/07/04 01:15:06;;;;;;;7.03;6.43;;;21.50;99.90;;;;;;5074790;28;20473;-66
2021/07/04 01:17:33;;;;;;;7.40;6.80;;;21.50;99.90;;;;;;5061950;28;20514;-66
2021/07/04 01:20:01;;;;;;;7.30;6.70;;;21.50;99.90;;;;;;5074890;28;20548;-66
2021/07/04 01:22:30;;;;;;;8.33;7.67;;;21.50;99.90;;;;;;5074771;28;21635;-66
2021/07/04 01:24:59;;;;;;;7.67;6.97;;;21.50;99.90;;;;;;5074863;28;20961;-66
2021/07/04 01:27:26;;;;;;;7.77;7.07;;;21.50;99.90;;;;;;5074455;28;20477;-66
2021/07/04 01:29:53;;;;;;;6.50;6.00;;;21.50;99.90;;;;;;5074802;28;20807;-65
2021/07/04 01:32:20;;;;;;;7.40;6.60;;;21.50;99.90;;;;;;5073511;28;20486;-66
2021/07/04 01:34:47;;;;;;;6.77;6.27;;;21.50;99.90;;;;;;5074607;28;20473;-66
2021/07/04 01:37:14;;;;;;;6.60;6.00;;;21.50;99.90;;;;;;5074235;28;20471;-66
2021/07/04 01:39:40;;;;;;;7.23;6.63;;;21.50;99.90;;;;;;5074749;28;20462;-66
2021/07/04 01:42:09;;;;;;;7.60;7.00;;;21.50;99.90;;;;;;5074200;28;20794;-66
2021/07/04 01:44:36;;;;;;;8.03;7.33;;;21.50;99.90;;;;;;5074660;28;20470;-66
2021/07/04 01:47:03;;;;;;;6.60;6.00;;;21.40;99.90;;;;;;5074673;28;20466;-66
2021/07/04 01:49:30;;;;;;;7.50;6.97;;;21.40;99.90;;;;;;5065245;28;20473;-66
2021/07/04 01:51:57;;;;;;;8.33;7.67;;;21.40;99.90;;;;;;5074500;28;20459;-66
2021/07/04 01:54:24;;;;;;;8.10;7.40;;;21.40;99.90;;;;;;5074019;28;20475;-66
2021/07/04 01:56:51;;;;;;;7.03;6.53;;;21.50;99.90;;;;;;5074292;28;20466;-66
2021/07/04 01:59:19;;;;;;;8.33;7.40;;;21.40;99.90;;;;;;5073605;28;20481;-65
2021/07/04 02:01:46;;;;;;;5.87;5.47;;;21.40;99.90;;;;;;5074273;28;20524;-66
2021/07/04 02:04:13;;;;;;;8.03;7.33;;;21.40;99.90;;;;;;5073578;28;20466;-65
2021/07/04 02:06:40;;;;;;;7.60;6.90;;;21.40;99.90;;;;;;5074140;28;20492;-65
2021/07/04 02:09:07;;;;;;;6.87;6.33;;;21.40;99.90;;;;;;5073764;28;20960;-66
2021/07/04 02:11:34;;;;;;;7.97;7.17;;;21.40;99.90;;;;;;5073828;28;20838;-66
2021/07/04 02:14:01;;;;;;;7.93;7.13;;;21.40;99.90;;;;;;5073989;28;20466;-66
2021/07/04 02:16:29;;;;;;;7.53;6.83;;;21.40;99.90;;;;;;5073510;28;20481;-66
2021/07/04 02:18:56;;;;;;;8.50;6.97;;;21.40;99.90;;;;;;5073595;28;20470;-65
2021/07/04 02:21:23;;;;;;;7.77;7.07;;;21.40;99.90;;;;;;5073436;28;20478;-66
2021/07/04 02:23:50;;;;;;;7.93;6.80;;;21.40;99.90;;;;;;5073610;28;20466;-65
2021/07/04 02:26:17;;;;;;;8.27;7.47;;;21.30;99.90;;;;;;5068568;28;20463;-66
2021/07/04 02:28:44;;;;;;;8.17;7.37;;;21.30;99.90;;;;;;5065259;28;20964;-66
2021/07/04 02:31:11;;;;;;;7.83;7.13;;;21.30;99.90;;;;;;5073206;28;20470;-66
2021/07/04 02:33:39;;;;;;;6.70;6.20;;;21.30;99.90;;;;;;5065985;28;20964;-66
2021/07/04 02:36:06;;;;;;;8.60;7.80;;;21.30;99.90;;;;;;5072513;28;20481;-66
2021/07/04 02:38:33;;;;;;;7.03;6.43;;;21.30;99.90;;;;;;5073180;28;20481;-66
2021/07/04 02:41:00;;;;;;;7.50;6.90;;;21.30;99.90;;;;;;5073465;28;20872;-66
2021/07/04 02:43:27;;;;;;;7.17;6.57;;;21.30;99.90;;;;;;5072890;28;20895;-66
2021/07/04 02:45:55;;;;;;;6.33;5.73;;;21.30;99.90;;;;;;5073213;28;20477;-66
2021/07/04 02:48:22;;;;;;;10.23;7.43;;;21.30;99.90;;;;;;5065537;28;20979;-66
2021/07/04 02:50:51;;;;;;;8.17;7.40;;;21.30;99.90;;;;;;5073548;28;20466;-66
2021/07/04 02:53:18;;;;;;;7.83;6.30;;;21.30;99.90;;;;;;5072804;28;20474;-65
2021/07/04 02:55:45;;;;;;;8.37;7.57;;;21.30;99.90;;;;;;5071106;28;20466;-66
2021/07/04 02:58:13;;;;;;;10.03;6.97;;;21.30;99.90;;;;;;5072710;28;20816;-65
2021/07/04 03:00:41;;;;;;;8.10;7.50;;;21.30;99.90;;;;;;5073224;28;20564;-66
2021/07/04 03:03:08;;;;;;;7.90;7.10;;;21.20;99.90;;;;;;5072987;28;20509;-66
2021/07/04 03:05:35;;;;;;;6.90;6.27;;;21.20;99.90;;;;;;5072711;28;20529;-66
2021/07/04 03:08:04;;;;;;;7.20;6.60;;;21.20;99.90;;;;;;5072979;28;20498;-66
2021/07/04 03:10:31;;;;;;;7.30;6.63;;;21.30;99.90;;;;;;5067247;28;20459;-66
2021/07/04 03:12:59;;;;;;;7.33;6.60;;;21.20;99.90;;;;;;5072755;28;20481;-66
2021/07/04 03:15:27;;;;;;;7.10;6.47;;;21.20;99.90;;;;;;5072341;28;20501;-66
2021/07/04 03:17:54;;;;;;;8.00;7.30;;;21.20;99.90;;;;;;5072873;28;20546;-66
2021/07/04 03:20:21;;;;;;;6.90;6.40;;;21.20;99.90;;;;;;5072460;28;20482;-66
2021/07/04 03:22:49;;;;;;;8.03;7.40;;;21.20;99.90;;;;;;5072845;28;20463;-66
2021/07/04 03:25:18;;;;;;;7.03;6.50;;;21.10;99.90;;;;;;5072537;28;20474;-66
2021/07/04 03:27:46;;;;;;;7.77;7.10;;;21.20;99.90;;;;;;5059063;28;20462;-66
2021/07/04 03:30:16;;;;;;;7.10;6.50;;;21.20;99.90;;;;;;5072376;28;20466;-66
2021/07/04 03:32:43;;;;;;;7.80;7.20;;;21.20;99.90;;;;;;5072775;28;20466;-66
2021/07/04 03:35:13;;;;;;;7.60;7.00;;;21.20;99.90;;;;;;5072769;28;20474;-66
2021/07/04 03:37:40;;;;;;;7.37;6.83;;;21.20;99.90;;;;;;5072098;28;21278;-66
2021/07/04 03:40:09;;;;;;;8.20;7.60;;;21.20;99.90;;;;;;5072776;28;20489;-66
2021/07/04 03:42:38;;;;;;;7.93;7.23;;;21.20;99.90;;;;;;5072116;28;20478;-66
2021/07/04 03:45:06;;;;;;;8.07;7.17;;;21.20;99.90;;;;;;5072681;28;20804;-66
2021/07/04 03:47:33;;;;;;;9.17;8.37;;;21.20;99.90;;;;;;5071803;28;20485;-66
2021/07/04 03:50:00;;;;;;;8.10;7.50;;;21.10;99.90;;;;;;5065032;28;20473;-65
2021/07/04 03:52:27;;;;;;;7.93;7.23;;;21.20;99.90;;;;;;5071976;28;20520;-66
2021/07/04 03:54:54;;;;;;;8.23;7.53;;;21.20;99.90;;;;;;5072389;28;20806;-66
2021/07/04 03:57:24;;;;;;;8.70;7.97;;;21.20;99.90;;;;;;5076072;28;20812;-66
2021/07/04 03:59:54;;;;;;;8.77;7.80;;;21.20;99.90;;;;;;5076538;28;20960;-66
2021/07/04 04:02:22;;;;;;;9.37;8.67;;;21.30;99.90;;;;;;5076221;28;20995;-66
2021/07/04 04:04:49;;;;;;;8.63;7.83;;;21.30;99.90;;;;;;5076434;28;20466;-66
2021/07/04 04:07:15;;;;;;;8.27;7.67;;;21.30;99.90;;;;;;5076270;28;20478;-66
2021/07/04 04:09:43;;;;;;;7.70;7.20;;;21.30;99.90;;;;;;5076118;28;20450;-65
2021/07/04 04:12:11;;;;;;;9.43;7.50;;;21.30;99.90;;;;;;5076051;28;20474;-66
2021/07/04 04:14:38;;;;;;;9.13;8.33;;;21.30;99.90;;;;;;5075864;28;23065;-66
2021/07/04 04:17:06;;;;;;;6.93;6.33;;;21.30;99.90;;;;;;5076304;28;20469;-66
2021/07/04 04:19:34;;;;;;;8.80;7.60;;;21.40;99.90;;;;;;5075617;28;20482;-65
2021/07/04 04:22:01;;;;;;;7.50;6.90;;;21.40;99.90;;;;;;5076008;28;20473;-66
2021/07/04 04:24:30;;;;;;;8.57;7.87;;;21.40;99.90;;;;;;5075770;28;21000;-65
2021/07/04 04:26:57;;;;;;;7.90;7.30;;;21.40;99.90;;;;;;5075999;28;20463;-65
2021/07/04 04:29:24;;;;;;;9.13;8.33;;;21.50;99.90;;;;;;5075639;28;20481;-65
2021/07/04 04:31:51;;;;;;;8.07;7.33;;;21.50;99.90;;;;;;5076072;28;20952;-66
2021/07/04 04:34:20;;;;;;;9.00;8.20;;;21.50;99.90;;;;;;5075901;28;20470;-66
2021/07/04 04:36:47;;;;;;;8.33;7.63;;;21.50;99.90;;;;;;5075491;28;21691;-63
2021/07/04 04:39:13;;;;;;;8.60;7.90;;;21.50;99.90;;;;;;5075714;28;20474;-66
2021/07/04 04:41:41;;;;;;;8.90;8.20;;;21.50;99.90;;;;;;5070483;28;20475;-64
2021/07/04 04:44:08;;;;;;;8.63;7.77;;;21.50;99.90;;;;;;5055201;28;20467;-64
2021/07/04 04:46:35;;;;;;;9.63;8.73;;;21.50;99.90;;;;;;5054474;28;20467;-64
2021/07/04 04:49:03;;;;;;;9.93;8.73;;;21.50;99.90;;;;;;5055739;28;20474;-65
2021/07/04 04:51:31;;;;;;;8.57;7.87;;;21.40;99.90;;;;;;5055210;28;20989;-64
2021/07/04 04:53:58;;;;;;;7.23;6.63;;;21.40;99.90;;;;;;5055783;28;20471;-64
2021/07/04 04:56:25;;;;;;;9.27;8.50;;;21.40;99.90;;;;;;5054160;28;20814;-65
2021/07/04 04:58:52;;;;;;;8.47;7.77;;;21.40;99.90;;;;;;5053872;28;20840;-65
2021/07/04 05:01:19;;;;;;;9.97;7.67;;;21.40;99.90;;;;;;5053675;28;20475;-65
2021/07/04 05:03:46;;;;;;;10.30;9.40;;;21.40;99.90;;;;;;5053246;28;20463;-65
2021/07/04 05:06:13;;;;;;;8.50;7.70;;;21.40;99.90;;;;;;5053763;28;20821;-65
2021/07/04 05:08:41;;;;;;;8.73;7.97;;;21.40;99.90;;;;;;5053169;28;20474;-65
2021/07/04 05:11:09;;;;;;;9.57;8.77;;;21.40;99.90;;;;;;5054901;28;20482;-66
2021/07/04 05:13:37;;;;;;;10.70;9.43;;;21.40;99.90;;;;;;5054580;28;20479;-65
2021/07/04 05:16:04;;;;;;;9.20;8.40;;;21.40;99.90;;;;;;5055295;28;20743;-65
2021/07/04 05:18:33;;;;;;;9.77;8.87;;;21.40;99.90;;;;;;5054646;28;20798;-65
2021/07/04 05:21:00;;;;;;;9.37;8.57;;;21.30;99.90;;;;;;5055127;28;20459;-65
2021/07/04 05:23:27;;;;;;;8.60;7.80;;;21.40;99.90;;;;;;5054776;28;20467;-65
2021/07/04 05:25:58;;;;;;;8.43;7.73;;;21.40;99.90;;;;;;5055201;28;20470;-65
2021/07/04 05:28:25;;;;;;;8.60;8.00;;;21.40;99.90;;;;;;5055080;28;20505;-65
2021/07/04 05:30:53;;;;;;;8.23;7.63;;;21.40;99.90;;;;;;5054959;28;20455;-65
2021/07/04 05:33:20;;;;;;;8.40;7.70;;;21.40;99.90;;;;;;5054694;28;20463;-65
2021/07/04 05:35:47;;;;;;;9.73;8.73;;;21.50;99.90;;;;;;5054556;28;20475;-65
2021/07/04 05:38:18;;;;;;;9.03;8.37;;;21.50;99.90;;;;;;5054717;28;20498;-65
2021/07/04 05:40:46;;;;;;;9.33;8.37;;;21.50;99.90;;;;;;5054335;28;20471;-67
2021/07/04 05:43:15;;;;;;;8.33;7.63;;;21.60;99.90;;;;;;5054863;28;20467;-65
2021/07/04 05:45:43;;;;;;;8.10;7.40;;;21.60;99.90;;;;;;5054358;28;20479;-65
2021/07/04 05:48:10;;;;;;;10.53;9.70;;;21.70;99.90;;;;;;5054462;28;20487;-65
2021/07/04 05:50:37;;;;;;;10.60;9.60;;;21.70;99.90;;;;;;5054368;28;20467;-65
2021/07/04 05:53:04;;;;;;;9.37;8.57;;;21.70;99.90;;;;;;5054561;28;20474;-65
2021/07/04 05:55:31;;;;;;;9.60;8.70;;;21.80;99.90;;;;;;5053915;28;20478;-65
2021/07/04 05:57:58;;;;;;;9.53;8.70;;;21.80;99.90;;;;;;5054585;28;20471;-65
2021/07/04 06:00:27;;;;;;;8.53;7.87;;;21.90;99.90;;;;;;5054367;28;20467;-64
2021/07/04 06:02:54;;;;;;;9.50;8.70;;;22.00;99.90;;;;;;5053853;28;20463;-65
2021/07/04 06:05:22;;;;;;;9.60;8.83;;;22.00;99.90;;;;;;5054352;28;20965;-65
2021/07/04 06:07:49;;;;;;;8.67;7.90;;;22.10;99.90;;;;;;5053818;28;20471;-65
2021/07/04 06:10:17;;;;;;;10.77;9.90;;;22.20;99.90;;;;;;5054264;28;21063;-65
2021/07/04 06:12:44;;;;;;;10.60;9.60;;;22.30;99.90;;;;;;5053757;28;20475;-65
2021/07/04 06:15:12;;;;;;;10.10;9.20;;;22.50;99.90;;;;;;5054118;28;20463;-65
2021/07/04 06:17:41;;;;;;;12.27;10.63;;;22.60;99.90;;;;;;5053210;28;20470;-65
2021/07/04 06:20:10;;;;;;;9.40;8.50;;;22.80;99.90;;;;;;5053783;28;20554;-65
2021/07/04 06:22:38;;;;;;;11.23;10.13;;;23.00;99.90;;;;;;5053643;28;21055;-65
2021/07/04 06:25:06;;;;;;;9.80;9.00;;;23.30;99.90;;;;;;5054022;28;20898;-64
2021/07/04 06:27:33;;;;;;;9.53;8.73;;;23.40;99.90;;;;;;5053793;28;20479;-65
2021/07/04 06:30:00;;;;;;;10.27;8.17;;;23.50;99.90;;;;;;5053641;28;20494;-65
2021/07/04 06:32:27;;;;;;;8.50;7.90;;;23.60;99.90;;;;;;5053426;28;20465;-64
2021/07/04 06:34:55;;;;;;;8.50;7.80;;;23.70;99.90;;;;;;5053888;28;20471;-64
2021/07/04 06:37:22;;;;;;;8.23;7.53;;;23.80;99.80;;;;;;5053115;28;20475;-64
2021/07/04 06:39:49;;;;;;;7.83;7.20;;;23.90;99.50;;;;;;5053750;28;20470;-65
2021/07/04 06:42:16;;;;;;;8.93;8.20;;;24.00;99.30;;;;;;5053291;28;20464;-64
2021/07/04 06:44:43;;;;;;;7.60;7.00;;;24.00;99.20;;;;;;5053654;28;20470;-65
2021/07/04 06:47:10;;;;;;;7.00;6.40;;;24.00;99.00;;;;;;5053154;28;20463;-65
2021/07/04 06:49:37;;;;;;;8.40;7.60;;;24.20;98.90;;;;;;5053540;28;20474;-65
2021/07/04 06:52:06;;;;;;;8.43;7.73;;;24.20;98.60;;;;;;5052961;28;20471;-65
2021/07/04 06:54:34;;;;;;;8.90;8.20;;;24.30;98.00;;;;;;5053535;28;20463;-65
2021/07/04 06:57:26;;;;;;;8.37;7.67;;;24.50;97.30;;;;;;5053443;28;20957;-65
2021/07/04 06:59:48;;;;;;;7.47;6.87;;;24.60;97.40;;;;;;5053142;28;20467;-65
2021/07/04 07:02:15;;;;;;;7.80;7.10;;;24.80;97.10;;;;;;5053090;28;20528;-65
2021/07/04 07:04:42;;;;;;;6.07;5.53;;;24.90;96.40;;;;;;5053149;28;20546;-65
2021/07/04 07:07:10;;;;;;;6.60;6.10;;;24.90;95.70;;;;;;5052718;28;20470;-65
2021/07/04 07:09:37;;;;;;;6.60;6.10;;;25.00;95.30;;;;;;5053220;28;20813;-65
2021/07/04 07:12:04;;;;;;;6.23;5.80;;;25.00;95.00;;;;;;5052614;28;20471;-65
2021/07/04 07:14:31;;;;;;;6.13;5.63;;;25.20;94.70;;;;;;5052973;28;20475;-65
2021/07/04 07:17:01;;;;;;;6.03;5.63;;;25.30;94.20;;;;;;5052722;28;20833;-65
2021/07/04 07:19:28;;;;;;;5.67;5.27;;;25.40;93.30;;;;;;5052987;28;20483;-65
2021/07/04 07:21:55;;;;;;;5.77;5.27;;;25.60;92.20;;;;;;5052538;28;20462;-65
2021/07/04 07:24:23;;;;;;;5.20;4.73;;;25.80;91.30;;;;;;5052968;28;20957;-65
2021/07/04 07:26:51;;;;;;;4.40;4.10;;;25.90;90.50;;;;;;5052780;28;20494;-65
2021/07/04 07:29:19;;;;;;;6.00;3.63;;;26.10;89.50;;;;;;5052630;28;20833;-65
2021/07/04 07:31:46;;;;;;;4.10;3.80;;;26.20;84.30;;;;;;5052090;28;20494;-66
2021/07/04 07:34:14;;;;;;;3.70;3.47;;;26.30;84.00;;;;;;5052448;28;20466;-65
2021/07/04 07:36:41;;;;;;;4.07;3.77;;;26.50;83.00;;;;;;5052678;28;20479;-65
2021/07/04 07:39:08;;;;;;;5.10;4.70;;;26.60;81.30;;;;;;5052255;28;20478;-65
2021/07/04 07:41:36;;;;;;;4.17;3.87;;;26.80;82.10;;;;;;5052813;28;20463;-65
2021/07/04 07:44:03;;;;;;;4.00;3.70;;;26.80;80.40;;;;;;5052163;28;20479;-66
2021/07/04 07:46:30;;;;;;;4.40;4.00;;;27.00;80.20;;;;;;5052521;28;20467;-66
2021/07/04 07:48:57;;;;;;;4.60;4.20;;;27.10;82.00;;;;;;5052152;28;20810;-65
2021/07/04 07:51:24;;;;;;;5.60;5.20;;;27.20;81.40;;;;;;5052648;28;20482;-66
2021/07/04 07:53:51;;;;;;;7.30;6.70;;;27.30;81.70;;;;;;5052313;28;20463;-66
2021/07/04 07:56:18;;;;;;;6.67;6.10;;;27.40;82.00;;;;;;5052790;28;20459;-66
2021/07/04 07:58:46;;;;;;;7.70;4.70;;;27.50;80.70;;;;;;5052391;28;20478;-64
2021/07/04 08:01:15;;;;;;;4.70;4.40;;;27.60;78.70;;;;;;5052283;28;20463;-65
2021/07/04 08:03:42;;;;;;;5.60;4.30;;;27.70;77.70;;;;;;5052526;28;20859;-65
2021/07/04 08:06:09;;;;;;;4.40;4.10;;;27.80;75.40;;;;;;5052011;28;20466;-65
2021/07/04 08:08:36;;;;;;;5.17;4.80;;;27.80;73.30;;;;;;5052592;28;20475;-65
2021/07/04 08:11:04;;;;;;;6.67;6.17;;;27.90;74.30;;;;;;5051943;28;20459;-64
2021/07/04 08:13:31;;;;;;;5.27;4.87;;;27.90;75.20;;;;;;5052210;28;20471;-65
2021/07/04 08:15:59;;;;;;;5.27;4.87;;;28.00;75.30;;;;;;5052075;28;20866;-65
2021/07/04 08:18:26;;;;;;;5.33;4.83;;;28.00;75.40;;;;;;5052340;28;20493;-65
2021/07/04 08:20:54;;;;;;;5.57;5.07;;;28.10;73.80;;;;;;5051776;28;20977;-65
2021/07/04 08:23:21;;;;;;;4.57;4.20;;;28.20;72.40;;;;;;5052208;28;20470;-65
2021/07/04 08:25:48;;;;;;;4.60;4.20;;;28.20;72.10;;;;;;5052328;28;20832;-65
2021/07/04 08:28:17;;;;;;;4.77;4.47;;;28.20;70.80;;;;;;5051729;28;21048;-65
2021/07/04 08:30:44;;;;;;;4.13;3.77;;;28.30;71.40;;;;;;5052261;28;20459;-65
2021/07/04 08:33:13;;;;;;;4.83;4.43;;;28.30;71.30;;;;;;5051487;28;20470;-65
2021/07/04 08:35:40;;;;;;;6.83;4.63;;;28.40;70.10;;;;;;5052101;28;20463;-66
2021/07/04 08:38:07;;;;;;;5.50;5.10;;;28.50;71.00;;;;;;5051872;28;20864;-65
2021/07/04 08:40:34;;;;;;;4.87;4.40;;;28.50;70.80;;;;;;5052248;28;20513;-65
2021/07/04 08:43:01;;;;;;;4.43;4.13;;;28.50;69.60;;;;;;5054832;28;20471;-66
2021/07/04 08:45:28;;;;;;;5.00;4.50;;;28.50;68.60;;;;;;5056195;28;20471;-65
2021/07/04 08:47:55;;;;;;;5.83;5.33;;;28.50;67.40;;;;;;5055189;28;20475;-65
2021/07/04 08:50:24;;;;;;;5.73;5.27;;;28.50;67.80;;;;;;5055634;28;20467;-65
2021/07/04 08:52:51;;;;;;;5.90;5.50;;;28.50;68.10;;;;;;5055738;28;20770;-65
2021/07/04 08:55:18;;;;;;;5.87;5.40;;;28.50;69.00;;;;;;5055247;28;20479;-65
2021/07/04 08:57:45;;;;;;;7.97;4.57;;;28.40;67.30;;;;;;5055568;28;20525;-65
2021/07/04 09:00:18;;;;;;;4.67;4.27;;;28.40;68.30;;;;;;5055333;28;20482;-65
2021/07/04 09:02:45;;;;;;;5.20;4.80;;;28.40;67.60;;;;;;5055468;28;20475;-65
2021/07/04 09:05:14;;;;;;;5.40;5.00;;;28.30;65.90;;;;;;5054889;28;20467;-65
2021/07/04 09:07:43;;;;;;;4.70;4.30;;;28.30;66.70;;;;;;5055419;28;20495;-65
2021/07/04 09:10:12;;;;;;;4.60;4.30;;;28.30;67.10;;;;;;5055023;28;20471;-65
2021/07/04 09:12:42;;;;;;;4.13;3.83;;;28.30;66.60;;;;;;5055375;28;20471;-65
2021/07/04 09:15:12;;;;;;;4.73;4.33;;;28.30;65.40;;;;;;5054952;28;20470;-65
2021/07/04 09:17:41;;;;;;;5.23;4.83;;;28.30;65.90;;;;;;5055158;28;20471;-65
2021/07/04 09:20:11;;;;;;;5.80;5.40;;;28.30;67.10;;;;;;5054753;28;20824;-65
2021/07/04 09:22:40;;;;;;;5.43;4.93;;;28.30;66.60;;;;;;5054350;28;20554;-65
2021/07/04 09:25:12;;;;;;;4.80;4.40;;;28.30;66.70;;;;;;5054854;28;20464;-65
2021/07/04 09:27:41;;;;;;;4.77;4.37;;;28.30;66.20;;;;;;5055014;28;20973;-65
2021/07/04 09:30:12;;;;;;;4.60;4.30;;;28.30;65.00;;;;;;5054820;28;20556;-65
2021/07/04 09:32:39;;;;;;;4.53;4.13;;;28.30;65.40;;;;;;5055045;28;20463;-65
2021/07/04 09:35:10;;;;;;;5.67;4.90;;;28.30;66.00;;;;;;5054566;28;20478;-65
2021/07/04 09:37:40;;;;;;;5.20;4.70;;;28.30;66.40;;;;;;5054968;28;21032;-65
2021/07/04 09:40:18;;;;;;;4.97;4.40;;;28.20;65.00;;;;;;5054564;28;20961;-65
2021/07/04 09:43:04;;;;;;;6.43;5.20;;;28.20;64.20;;;;;;5054758;28;21020;-65
2021/07/04 09:45:44;;;;;;;4.70;4.40;;;28.20;64.00;;;;;;5054605;28;20555;-65
2021/07/04 09:48:11;;;;;;;5.40;4.90;;;28.10;64.10;;;;;;5054092;28;20471;-65
2021/07/04 09:50:41;;;;;;;4.67;4.37;;;28.00;66.40;;;;;;5054655;28;20471;-65
2021/07/04 09:53:08;;;;;;;4.80;4.30;;;28.00;67.30;;;;;;5053408;28;20467;-65
2021/07/04 09:55:37;;;;;;;4.00;3.70;;;27.90;67.80;;;;;;5054574;28;20459;-65
2021/07/04 09:58:05;;;;;;;4.63;4.33;;;27.90;68.20;;;;;;5054569;28;20471;-65
2021/07/04 10:00:34;;;;;;;6.00;4.70;;;27.80;68.00;;;;;;5054063;28;20459;-65
2021/07/04 10:03:08;;;;;;;10.50;7.97;;;27.80;68.60;;;;;;5054267;28;20467;-65
2021/07/04 10:05:35;;;;;;;6.83;6.23;;;27.80;69.40;;;;;;5053999;28;20506;-64
2021/07/04 10:08:18;;;;;;;5.53;5.03;;;27.70;69.40;;;;;;5054172;28;20469;-65
2021/07/04 10:10:47;;;;;;;6.37;4.77;;;27.80;69.20;;;;;;5054171;28;20991;-64
2021/07/04 10:13:14;;;;;;;4.67;4.30;;;27.70;68.10;;;;;;5054118;28;20455;-65
2021/07/04 10:15:44;;;;;;;5.67;5.27;;;27.70;68.40;;;;;;5053747;28;20454;-65
2021/07/04 10:18:13;;;;;;;5.13;4.83;;;27.70;69.00;;;;;;5054057;28;20497;-65
2021/07/04 10:20:42;;;;;;;4.67;4.37;;;27.70;69.40;;;;;;5053740;28;20858;-65
2021/07/04 10:23:11;;;;;;;4.17;3.97;;;27.80;70.10;;;;;;5053859;28;20471;-65
2021/07/04 10:25:38;;;;;;;4.53;4.13;;;27.80;70.50;;;;;;5053751;28;20782;-65
2021/07/04 10:28:06;;;;;;;5.73;5.33;;;27.80;69.90;;;;;;5053868;28;20471;-65
2021/07/04 10:30:34;;;;;;;4.20;3.90;;;27.80;69.70;;;;;;5053533;28;20858;-65
2021/07/04 10:33:14;;;;;;;4.30;3.90;;;27.80;69.60;;;;;;5053826;28;20463;-65
2021/07/04 10:35:59;;;;;;;5.00;4.60;;;27.80;68.30;;;;;;5053422;28;20467;-65
2021/07/04 10:38:27;;;;;;;5.23;4.87;;;27.80;67.30;;;;;;5053381;28;20527;-65
2021/07/04 10:41:06;;;;;;;5.43;5.13;;;27.80;67.80;;;;;;5053588;28;20470;-65
2021/07/04 10:44:06;;;;;;;4.73;4.33;;;27.80;67.60;;;;;;5053222;28;20815;-65
2021/07/04 10:47:05;;;;;;;4.97;4.57;;;27.80;68.20;;;;;;4991987;28;20832;-65
2021/07/04 10:49:39;;;;;;;5.13;4.70;;;27.80;67.80;;;;;;5053254;28;20467;-66
2021/07/04 10:52:08;;;;;;;4.60;4.30;;;27.90;67.50;;;;;;5053341;28;20464;-65
2021/07/04 10:54:50;;;;;;;5.13;4.77;;;27.90;67.90;;;;;;5053052;28;20464;-65
2021/07/04 10:57:21;;;;;;;5.27;4.77;;;27.90;68.20;;;;;;5053322;28;20509;-65
2021/07/04 11:00:23;;;;;;;5.10;4.70;;;27.90;66.90;;;;;;5053087;28;20529;-65
2021/07/04 11:02:54;;;;;;;4.30;4.00;;;27.80;66.60;;;;;;5052901;28;20459;-66
2021/07/04 11:05:48;;;;;;;4.70;4.30;;;27.80;66.40;;;;;;5053215;28;20473;-65
2021/07/04 11:08:21;;;;;;;5.10;4.80;;;27.80;65.30;;;;;;5053127;28;20460;-66
2021/07/04 11:11:16;;;;;;;5.47;4.97;;;27.80;65.40;;;;;;5053406;28;20463;-65
2021/07/04 11:13:49;;;;;;;4.50;4.10;;;27.70;67.20;;;;;;5046841;28;20896;-65
2021/07/04 11:16:26;;;;;;;5.47;5.07;;;27.70;67.70;;;;;;5053073;28;20533;-65
2021/07/04 11:19:07;;;;;;;5.20;4.80;;;27.70;68.40;;;;;;5052455;28;20467;-66
2021/07/04 11:21:49;;;;;;;6.10;5.60;;;27.60;68.90;;;;;;5052811;28;21249;-65
2021/07/04 11:24:20;;;;;;;6.27;5.77;;;27.50;68.90;;;;;;5052435;28;20474;-65
2021/07/04 11:27:22;;;;;;;5.40;4.90;;;27.60;70.00;;;;;;5052935;28;20479;-65
2021/07/04 11:30:27;;;;;;;4.83;4.43;;;27.60;69.50;;;;;;5052879;28;20491;-65
2021/07/04 11:33:31;;;;;;;5.13;4.73;;;27.60;70.10;;;;;;5052568;28;20478;-65
2021/07/04 11:36:13;;;;;;;6.07;4.80;;;27.60;70.40;;;;;;5051656;28;21010;-65
2021/07/04 11:38:42;;;;;;;5.23;4.90;;;27.60;69.80;;;;;;5052385;28;20538;-65
2021/07/04 11:41:10;;;;;;;7.40;6.70;;;27.60;69.90;;;;;;5052622;28;20478;-65
2021/07/04 11:43:39;;;;;;;5.83;5.43;;;27.50;69.50;;;;;;5052181;28;20482;-65
2021/07/04 11:46:09;;;;;;;5.73;5.30;;;27.50;69.50;;;;;;5052657;28;20484;-65
2021/07/04 11:48:51;;;;;;;7.07;6.47;;;27.40;69.70;;;;;;5052307;28;20479;-65
2021/07/04 11:51:25;;;;;;;5.83;5.43;;;27.40;69.60;;;;;;5052578;28;21043;-65
2021/07/04 11:53:54;;;;;;;6.17;5.67;;;27.30;69.80;;;;;;5052180;28;20464;-66
2021/07/04 11:56:22;;;;;;;5.77;5.30;;;27.30;69.70;;;;;;5052658;28;20469;-66
2021/07/04 11:58:49;;;;;;;5.73;5.17;;;27.20;68.80;;;;;;5052055;28;20479;-65
2021/07/04 12:01:18;;;;;;;5.50;5.10;;;27.20;69.20;;;;;;5052586;28;20802;-66
2021/07/04 12:03:49;;;;;;;5.40;5.00;;;27.20;69.80;;;;;;5052074;28;20555;-66
2021/07/04 12:06:16;;;;;;;5.37;4.97;;;27.00;69.30;;;;;;5052582;28;20463;-66
2021/07/04 12:09:00;;;;;;;5.90;5.30;;;27.00;70.30;;;;;;5051836;28;20482;-66
2021/07/04 12:11:45;;;;;;;6.23;5.77;;;27.10;70.60;;;;;;5052453;28;20809;-66
2021/07/04 12:14:33;;;;;;;7.13;5.83;;;27.10;70.40;;;;;;5052379;28;20474;-66
2021/07/04 12:17:19;;;;;;;5.97;5.57;;;27.20;69.60;;;;;;5053954;28;20470;-66
2021/07/04 12:19:50;;;;;;;5.83;5.33;;;27.20;69.10;;;;;;5056291;28;20478;-65
2021/07/04 12:22:21;;;;;;;5.03;4.63;;;27.30;69.00;;;;;;5056014;28;20505;-65
2021/07/04 12:24:49;;;;;;;5.20;4.80;;;27.30;68.90;;;;;;5056240;28;21114;-66
2021/07/04 12:27:17;;;;;;;5.83;5.43;;;27.40;69.20;;;;;;5055890;28;20844;-66
2021/07/04 12:30:02;;;;;;;6.17;5.77;;;27.50;69.30;;;;;;5056303;28;20470;-66
2021/07/04 12:32:31;;;;;;;5.70;5.30;;;27.50;69.40;;;;;;5056069;28;21726;-65
2021/07/04 12:34:58;;;;;;;5.80;5.40;;;27.60;68.70;;;;;;5056257;28;20810;-66
2021/07/04 12:37:26;;;;;;;6.00;5.60;;;27.60;68.10;;;;;;5055454;28;20467;-66
2021/07/04 12:40:11;;;;;;;5.60;5.20;;;27.60;68.50;;;;;;5056183;28;20467;-66
2021/07/04 12:42:39;;;;;;;6.30;5.80;;;27.70;67.90;;;;;;5055821;28;20463;-65
2021/07/04 12:45:08;;;;;;;5.40;5.00;;;27.70;68.20;;;;;;5055866;28;20470;-66
2021/07/04 12:47:35;;;;;;;6.70;6.10;;;27.60;66.90;;;;;;5055290;28;20467;-66
2021/07/04 12:50:09;;;;;;;4.90;4.60;;;27.60;67.00;;;;;;5055974;28;20467;-66
2021/07/04 12:52:36;;;;;;;5.50;5.10;;;27.60;67.10;;;;;;5055383;28;20455;-65
2021/07/04 12:55:06;;;;;;;5.23;4.83;;;27.60;67.00;;;;;;5055619;28;20463;-66
2021/07/04 12:57:35;;;;;;;5.60;5.17;;;27.60;66.60;;;;;;5055136;28;20467;-65